createdAt,value
2023-05-21T00:00:51.657Z,19.32
2023-05-21T00:04:15.819Z,19.06
2023-05-21T00:07:39.823Z,19.20
2023-05-21T00:11:03.506Z,19.16
2023-05-21T00:14:25.150Z,19.20
2023-05-21T00:17:49.469Z,19.11
2023-05-21T00:21:12.301Z,19.10
2023-05-21T00:24:33.954Z,19.03
2023-05-21T00:27:58.578Z,18.89
2023-05-21T00:31:20.298Z,18.83
2023-05-21T00:34:42.320Z,18.72
2023-05-21T00:38:03.985Z,18.68
2023-05-21T00:41:30.459Z,18.63
2023-05-21T00:44:54.180Z,18.58
2023-05-21T00:48:18.846Z,18.63
2023-05-21T00:51:40.784Z,18.61
2023-05-21T00:55:05.045Z,18.58
2023-05-21T00:58:27.378Z,18.56
2023-05-21T01:01:56.577Z,18.49
2023-05-21T01:05:18.819Z,18.51
2023-05-21T01:08:41.647Z,18.51
2023-05-21T01:12:05.553Z,18.48
2023-05-21T01:15:29.997Z,18.45
2023-05-21T01:18:53.954Z,18.45
2023-05-21T01:22:18.349Z,18.44
2023-05-21T01:25:42.369Z,18.47
2023-05-21T01:29:07.823Z,18.41
2023-05-21T01:32:40.749Z,18.38
2023-05-21T01:36:28.074Z,18.37
2023-05-21T01:40:03.801Z,18.34
2023-05-21T01:43:34.983Z,18.42
2023-05-21T01:46:59.605Z,18.31
2023-05-21T01:50:24.632Z,18.27
2023-05-21T01:53:49.680Z,18.25
2023-05-21T01:57:11.321Z,18.31
2023-05-21T02:00:35.726Z,18.17
2023-05-21T02:04:00.127Z,18.21
2023-05-21T02:07:22.673Z,18.20
2023-05-21T02:10:46.743Z,18.24
2023-05-21T02:14:10.448Z,18.25
2023-05-21T02:17:34.266Z,18.20
2023-05-21T02:20:58.177Z,18.24
2023-05-21T02:24:24.469Z,18.05
2023-05-21T02:27:52.844Z,18.05
2023-05-21T02:31:14.532Z,18.05
2023-05-21T02:34:37.408Z,18.10
2023-05-21T02:38:03.691Z,18.05
2023-05-21T02:41:27.816Z,17.98
2023-05-21T02:44:52.499Z,18.03
2023-05-21T02:48:16.475Z,17.94
2023-05-21T02:51:41.674Z,17.98
2023-05-21T02:55:03.427Z,17.98
2023-05-21T02:58:27.401Z,17.91
2023-05-21T03:01:49.041Z,17.80
2023-05-21T03:05:10.739Z,17.90
2023-05-21T03:08:32.393Z,17.94
2023-05-21T03:11:56.767Z,18.00
2023-05-21T03:15:24.019Z,18.10
2023-05-21T03:18:46.005Z,17.96
2023-05-21T03:22:07.736Z,17.89
2023-05-21T03:25:29.374Z,17.87
2023-05-21T03:28:53.496Z,17.87
2023-05-21T03:32:18.093Z,17.98
2023-05-21T03:35:44.421Z,17.91
2023-05-21T03:39:10.883Z,17.91
2023-05-21T03:42:32.519Z,17.91
2023-05-21T03:45:55.032Z,18.01
2023-05-21T03:49:16.734Z,17.84
2023-05-21T03:52:38.720Z,18.03
2023-05-21T03:56:04.822Z,17.86
2023-05-21T03:59:26.453Z,17.79
2023-05-21T04:02:48.188Z,17.87
2023-05-21T04:06:10.372Z,18.04
2023-05-21T04:09:36.614Z,18.25
2023-05-21T04:12:58.728Z,18.45
2023-05-21T04:16:20.462Z,18.61
2023-05-21T04:19:42.371Z,18.68
2023-05-21T04:23:04.021Z,18.85
2023-05-21T04:26:25.699Z,18.95
2023-05-21T04:29:50.772Z,19.09
2023-05-21T04:33:12.693Z,19.26
2023-05-21T04:36:34.450Z,19.28
2023-05-21T04:39:56.094Z,19.24
2023-05-21T04:43:18.241Z,19.31
2023-05-21T04:46:41.790Z,19.34
2023-05-21T04:50:04.515Z,19.45
2023-05-21T04:53:26.432Z,19.50
2023-05-21T04:56:55.184Z,19.59
2023-05-21T05:00:17.528Z,19.61
2023-05-21T05:03:41.429Z,19.86
2023-05-21T05:07:03.098Z,20.00
2023-05-21T05:10:27.072Z,20.19
2023-05-21T05:13:51.040Z,20.40
2023-05-21T05:17:18.756Z,20.55
2023-05-21T05:20:42.612Z,20.65
2023-05-21T05:24:04.624Z,20.87
2023-05-21T05:27:26.295Z,20.88
2023-05-21T05:30:47.949Z,21.02
2023-05-21T05:34:12.107Z,21.05
2023-05-21T05:37:33.737Z,21.22
2023-05-21T05:40:57.844Z,21.39
2023-05-21T05:44:19.651Z,21.49
2023-05-21T05:47:41.709Z,21.63
2023-05-21T05:51:05.967Z,21.63
2023-05-21T05:54:28.018Z,21.64
2023-05-21T05:57:49.684Z,21.77
2023-05-21T06:01:13.718Z,21.90
2023-05-21T06:04:35.499Z,22.04
2023-05-21T06:07:57.541Z,22.21
2023-05-21T06:11:22.746Z,22.35
2023-05-21T06:14:49.438Z,22.50
2023-05-21T06:18:13.260Z,22.53
2023-05-21T06:21:34.948Z,22.71
2023-05-21T06:24:59.317Z,22.96
2023-05-21T06:28:23.203Z,23.07
2023-05-21T06:31:44.827Z,23.25
2023-05-21T06:35:06.897Z,23.31
2023-05-21T06:38:28.480Z,23.46
2023-05-21T06:41:52.347Z,23.44
2023-05-21T06:45:14.088Z,23.45
2023-05-21T06:48:36.156Z,23.51
2023-05-21T06:52:00.165Z,23.56
2023-05-21T06:55:22.375Z,23.79
2023-05-21T06:58:44.005Z,23.92
2023-05-21T07:02:08.773Z,23.83
2023-05-21T07:05:30.588Z,24.06
2023-05-21T07:08:52.329Z,24.10
2023-05-21T07:12:14.028Z,24.25
2023-05-21T07:15:38.077Z,24.24
2023-05-21T07:18:59.907Z,24.41
2023-05-21T07:22:21.563Z,24.47
2023-05-21T07:25:43.208Z,24.75
2023-05-21T07:29:07.646Z,24.83
2023-05-21T07:32:29.435Z,24.85
2023-05-21T07:35:51.592Z,24.86
2023-05-21T07:39:13.244Z,24.90
2023-05-21T07:42:37.514Z,25.05
2023-05-21T07:45:59.127Z,24.97
2023-05-21T07:49:22.983Z,25.24
2023-05-21T07:52:44.658Z,25.53
2023-05-21T07:56:07.111Z,25.48
2023-05-21T07:59:31.676Z,25.45
2023-05-21T08:02:53.608Z,25.68
2023-05-21T08:06:15.435Z,25.88
2023-05-21T08:09:37.060Z,26.08
2023-05-21T08:13:01.487Z,25.99
2023-05-21T08:16:24.095Z,25.98
2023-05-21T08:19:45.793Z,25.81
2023-05-21T08:23:09.909Z,25.80
2023-05-21T08:26:33.997Z,26.12
2023-05-21T08:29:58.142Z,26.39
2023-05-21T08:33:22.329Z,26.33
2023-05-21T08:36:48.089Z,26.37
2023-05-21T08:40:11.449Z,26.58
2023-05-21T08:43:34.514Z,26.91
2023-05-21T08:46:59.101Z,27.15
2023-05-21T08:50:21.999Z,26.60
2023-05-21T08:53:46.011Z,26.65
2023-05-21T08:57:08.912Z,26.88
2023-05-21T09:00:30.628Z,26.76
2023-05-21T09:03:54.554Z,26.87
2023-05-21T09:07:23.416Z,26.99
2023-05-21T09:10:52.451Z,26.95
2023-05-21T09:14:17.480Z,27.01
2023-05-21T09:17:39.122Z,27.28
2023-05-21T09:21:25.584Z,27.52
2023-05-21T09:24:48.006Z,27.46
2023-05-21T09:28:16.638Z,27.74
2023-05-21T09:31:46.764Z,27.98
2023-05-21T09:35:15.650Z,27.89
2023-05-21T09:38:40.117Z,28.05
2023-05-21T09:42:02.500Z,28.10
2023-05-21T09:45:28.450Z,28.22
2023-05-21T09:48:50.065Z,28.07
2023-05-21T09:52:14.005Z,28.18
2023-05-21T09:55:39.319Z,28.32
2023-05-21T09:59:10.017Z,28.38
2023-05-21T10:02:35.383Z,28.44
2023-05-21T10:06:00.773Z,28.59
2023-05-21T10:09:23.653Z,28.65
2023-05-21T10:12:51.990Z,28.35
2023-05-21T10:16:14.257Z,28.53
2023-05-21T10:19:37.351Z,28.65
2023-05-21T10:23:00.209Z,28.86
2023-05-21T10:26:27.852Z,28.84
2023-05-21T10:29:50.845Z,28.87
2023-05-21T10:33:16.596Z,28.89
2023-05-21T10:36:41.363Z,28.93
2023-05-21T10:40:06.109Z,28.96
2023-05-21T10:43:37.102Z,29.23
2023-05-21T10:47:22.791Z,29.13
2023-05-21T10:51:06.560Z,29.31
2023-05-21T10:55:02.224Z,29.48
2023-05-21T10:58:39.468Z,29.47
2023-05-21T11:02:01.996Z,29.03
2023-05-21T11:06:06.414Z,29.06
2023-05-21T11:09:28.117Z,29.15
2023-05-21T11:13:07.399Z,29.08
2023-05-21T11:16:29.559Z,29.14
2023-05-21T11:19:51.586Z,29.31
2023-05-21T11:23:15.396Z,29.39
2023-05-21T11:26:52.096Z,29.38
2023-05-21T11:30:18.467Z,29.32
2023-05-21T11:33:42.510Z,29.25
2023-05-21T11:37:18.887Z,28.93
2023-05-21T11:40:53.707Z,28.92
2023-05-21T11:44:15.672Z,28.92
2023-05-21T11:47:44.056Z,28.42
2023-05-21T11:51:06.101Z,28.10
2023-05-21T11:54:36.976Z,28.32
2023-05-21T11:57:59.072Z,28.28
2023-05-21T12:01:27.790Z,28.24
2023-05-21T12:04:54.113Z,28.01
2023-05-21T12:08:27.623Z,27.60
2023-05-21T12:11:49.308Z,27.71
2023-05-21T12:15:12.558Z,27.81
2023-05-21T12:18:36.402Z,27.83
2023-05-21T12:22:04.736Z,27.60
2023-05-21T12:25:26.712Z,27.41
2023-05-21T12:28:49.051Z,27.26
2023-05-21T12:32:14.337Z,27.01
2023-05-21T12:35:40.313Z,27.21
2023-05-21T12:39:02.060Z,27.71
2023-05-21T12:42:30.605Z,27.84
2023-05-21T12:45:55.928Z,27.97
2023-05-21T12:49:40.530Z,28.12
2023-05-21T12:53:02.294Z,27.84
2023-05-21T12:56:23.953Z,27.80
2023-05-21T13:00:11.144Z,27.97
2023-05-21T13:03:33.194Z,27.98
2023-05-21T13:06:58.148Z,27.93
2023-05-21T13:10:19.858Z,27.66
2023-05-21T13:13:44.273Z,27.64
2023-05-21T13:17:06.533Z,27.71
2023-05-21T13:20:30.622Z,27.89
2023-05-21T13:23:54.630Z,27.97
2023-05-21T13:27:18.637Z,28.12
2023-05-21T13:30:42.601Z,28.15
2023-05-21T13:34:09.141Z,28.14
2023-05-21T13:37:33.910Z,28.18
2023-05-21T13:40:55.761Z,28.32
2023-05-21T13:44:19.937Z,28.42
2023-05-21T13:47:42.893Z,28.48
2023-05-21T13:51:09.347Z,28.35
2023-05-21T13:54:31.191Z,28.41
2023-05-21T13:57:55.462Z,28.14
2023-05-21T14:01:17.201Z,27.67
2023-05-21T14:04:41.369Z,27.33
2023-05-21T14:08:05.979Z,27.49
2023-05-21T14:11:28.571Z,27.60
2023-05-21T14:14:52.546Z,27.69
2023-05-21T14:18:14.193Z,27.84
2023-05-21T14:21:38.339Z,27.97
2023-05-21T14:25:03.339Z,27.96
2023-05-21T14:28:25.756Z,27.77
2023-05-21T14:31:47.477Z,27.71
2023-05-21T14:35:09.300Z,27.77
2023-05-21T14:38:34.128Z,27.86
2023-05-21T14:41:55.878Z,27.86
2023-05-21T14:45:19.745Z,27.80
2023-05-21T14:48:41.466Z,27.79
2023-05-21T14:52:05.514Z,27.77
2023-05-21T14:55:34.732Z,27.64
2023-05-21T14:59:00.980Z,27.53
2023-05-21T15:02:22.740Z,27.49
2023-05-21T15:05:46.737Z,27.35
2023-05-21T15:09:08.675Z,27.45
2023-05-21T15:12:32.549Z,27.39
2023-05-21T15:15:54.282Z,27.32
2023-05-21T15:19:18.450Z,27.25
2023-05-21T15:22:40.304Z,27.25
2023-05-21T15:26:04.160Z,27.14
2023-05-21T15:29:26.025Z,27.05
2023-05-21T15:32:47.673Z,27.09
2023-05-21T15:36:14.805Z,27.02
2023-05-21T15:39:36.394Z,26.94
2023-05-21T15:43:00.368Z,26.88
2023-05-21T15:46:24.209Z,26.77
2023-05-21T15:49:50.976Z,26.78
2023-05-21T15:53:12.552Z,26.73
2023-05-21T15:56:34.195Z,26.67
2023-05-21T15:59:55.984Z,26.57
2023-05-21T16:03:17.758Z,26.58
2023-05-21T16:06:39.726Z,26.47
2023-05-21T16:10:04.694Z,26.46
2023-05-21T16:13:28.850Z,26.37
2023-05-21T16:16:50.617Z,26.41
2023-05-21T16:20:12.852Z,26.35
2023-05-21T16:23:34.555Z,26.35
2023-05-21T16:26:58.489Z,26.26
2023-05-21T16:30:20.329Z,26.16
2023-05-21T16:33:41.924Z,26.15
2023-05-21T16:37:03.732Z,26.13
2023-05-21T16:40:27.832Z,26.13
2023-05-21T16:43:52.501Z,26.08
2023-05-21T16:47:14.229Z,26.03
2023-05-21T16:50:38.497Z,26.01
2023-05-21T16:54:00.192Z,25.98
2023-05-21T16:57:21.823Z,26.01
2023-05-21T17:00:43.533Z,25.99
2023-05-21T17:04:07.917Z,26.02
2023-05-21T17:07:31.701Z,25.96
2023-05-21T17:10:56.315Z,25.88
2023-05-21T17:14:32.942Z,25.75
2023-05-21T17:17:58.264Z,25.68
2023-05-21T17:21:26.460Z,25.68
2023-05-21T17:24:48.411Z,25.60
2023-05-21T17:28:10.074Z,25.54
2023-05-21T17:31:34.443Z,25.44
2023-05-21T17:34:56.114Z,25.33
2023-05-21T17:38:20.380Z,25.28
2023-05-21T17:41:42.098Z,25.19
2023-05-21T17:45:04.054Z,25.16
2023-05-21T17:48:28.096Z,25.16
2023-05-21T17:51:55.134Z,25.07
2023-05-21T17:55:19.221Z,25.02
2023-05-21T17:58:45.832Z,24.89
2023-05-21T18:02:07.827Z,24.78
2023-05-21T18:05:34.246Z,24.71
2023-05-21T18:08:55.936Z,24.59
2023-05-21T18:12:24.888Z,24.48
2023-05-21T18:15:46.625Z,24.32
2023-05-21T18:19:13.150Z,24.25
2023-05-21T18:22:34.839Z,24.09
2023-05-21T18:25:56.558Z,24.01
2023-05-21T18:29:18.156Z,23.93
2023-05-21T18:32:44.202Z,23.73
2023-05-21T18:36:10.918Z,23.65
2023-05-21T18:39:34.787Z,23.48
2023-05-21T18:42:56.441Z,23.37
2023-05-21T18:46:18.164Z,23.34
2023-05-21T18:49:39.791Z,23.31
2023-05-21T18:53:04.113Z,23.28
2023-05-21T18:56:25.956Z,23.14
2023-05-21T18:59:52.154Z,23.04
2023-05-21T19:03:13.956Z,22.93
2023-05-21T19:06:36.243Z,22.71
2023-05-21T19:10:00.537Z,22.70
2023-05-21T19:13:23.326Z,22.59
2023-05-21T19:16:45.051Z,22.45
2023-05-21T19:20:08.467Z,22.40
2023-05-21T19:23:41.173Z,22.42
2023-05-21T19:27:10.493Z,22.38
2023-05-21T19:30:34.857Z,22.40
2023-05-21T19:33:59.004Z,22.49
2023-05-21T19:37:22.846Z,22.50
2023-05-21T19:40:46.522Z,22.40
2023-05-21T19:44:10.390Z,22.28
2023-05-21T19:47:32.385Z,22.31
2023-05-21T19:50:54.193Z,22.12
2023-05-21T19:54:18.864Z,22.19
2023-05-21T19:57:42.657Z,22.21
2023-05-21T20:01:05.994Z,21.92
2023-05-21T20:04:27.615Z,21.90
2023-05-21T20:07:49.487Z,21.63
2023-05-21T20:11:11.154Z,21.54
2023-05-21T20:14:35.799Z,21.51
2023-05-21T20:17:59.748Z,21.42
2023-05-21T20:21:24.697Z,21.37
2023-05-21T20:24:46.361Z,21.35
2023-05-21T20:28:10.706Z,21.13
2023-05-21T20:31:32.388Z,21.08
2023-05-21T20:35:02.879Z,20.98
2023-05-21T20:38:26.208Z,21.09
2023-05-21T20:41:48.381Z,21.30
2023-05-21T20:45:10.772Z,21.26
2023-05-21T20:48:35.367Z,21.16
2023-05-21T20:51:56.980Z,21.03
2023-05-21T20:55:23.582Z,20.92
2023-05-21T20:58:48.563Z,20.78
2023-05-21T21:02:14.012Z,21.06
2023-05-21T21:05:38.256Z,21.08
2023-05-21T21:08:59.879Z,21.05
2023-05-21T21:12:26.516Z,21.00
2023-05-21T21:15:51.142Z,21.15
2023-05-21T21:19:12.893Z,21.09
2023-05-21T21:22:34.732Z,21.08
2023-05-21T21:25:57.056Z,21.00
2023-05-21T21:29:18.708Z,21.27
2023-05-21T21:32:42.936Z,21.12
2023-05-21T21:36:04.998Z,21.02
2023-05-21T21:39:26.886Z,20.94
2023-05-21T21:42:51.173Z,20.89
2023-05-21T21:46:16.904Z,20.84
2023-05-21T21:49:38.652Z,20.78
2023-05-21T21:53:01.239Z,20.75
2023-05-21T21:56:22.923Z,20.74
2023-05-21T21:59:49.853Z,20.72
2023-05-21T22:03:14.430Z,20.63
2023-05-21T22:06:38.988Z,20.64
2023-05-21T22:10:01.433Z,20.57
2023-05-21T22:13:23.196Z,20.61
2023-05-21T22:16:45.648Z,20.63
2023-05-21T22:20:08.761Z,20.68
2023-05-21T22:23:30.590Z,20.79
2023-05-21T22:26:52.316Z,20.74
2023-05-21T22:30:14.053Z,20.52
2023-05-21T22:33:36.709Z,20.13
2023-05-21T22:36:58.565Z,20.13
2023-05-21T22:40:22.720Z,20.14
2023-05-21T22:43:44.417Z,19.99
2023-05-21T22:47:06.438Z,19.86
2023-05-21T22:50:29.169Z,19.79
2023-05-21T22:53:55.244Z,19.74
2023-05-21T22:57:16.969Z,19.78
2023-05-21T23:00:38.747Z,19.71
2023-05-21T23:04:02.988Z,19.76
2023-05-21T23:07:27.101Z,19.64
2023-05-21T23:10:48.847Z,19.59
2023-05-21T23:14:10.724Z,19.76
2023-05-21T23:17:32.738Z,19.71
2023-05-21T23:20:58.882Z,19.57
2023-05-21T23:24:21.282Z,19.39
2023-05-21T23:27:42.897Z,19.57
2023-05-21T23:31:09.755Z,19.43
2023-05-21T23:34:31.853Z,19.50
2023-05-21T23:37:55.988Z,19.66
2023-05-21T23:41:19.828Z,19.43
2023-05-21T23:44:46.213Z,19.18
2023-05-21T23:48:10.056Z,19.27
2023-05-21T23:51:34.313Z,19.28
2023-05-21T23:54:59.088Z,19.18
2023-05-21T23:58:23.218Z,19.04
